Time;durP1;ratioP1;P1;durP2;ratioP2;P2;SDS_P1;SDS_P2;PMS_P1;PMS_P2;Temp;Humidity;BMP_temperature;BMP_pressure;BME280_temperature;BME280_humidity;BME280_pressure;Samples;Min_cycle;Max_cycle;Signal;HPM_P1;HPM_P2
2022/03/27 00:02:20;;;;;;;24.08;15.02;;;9.30;99.90;;;;;;5166118;27;20098;-65
2022/03/27 00:04:46;;;;;;;21.45;13.43;;;9.30;99.90;;;;;;5165634;27;20050;-65
2022/03/27 00:07:12;;;;;;;22.30;13.77;;;9.30;99.90;;;;;;5147331;27;20038;-65
2022/03/27 00:09:38;;;;;;;23.00;14.38;;;9.30;99.90;;;;;;5163253;27;20072;-65
2022/03/27 00:12:04;;;;;;;24.00;14.70;;;9.20;99.90;;;;;;5165583;27;20038;-65
2022/03/27 00:14:30;;;;;;;23.60;14.32;;;9.20;99.90;;;;;;5148845;27;20039;-65
2022/03/27 00:16:57;;;;;;;22.85;13.73;;;9.10;99.90;;;;;;5167015;27;20143;-65
2022/03/27 00:19:23;;;;;;;23.05;14.27;;;9.10;99.90;;;;;;5166478;27;20062;-65
2022/03/27 00:21:49;;;;;;;24.63;14.68;;;8.90;99.90;;;;;;5165926;27;20067;-65
2022/03/27 00:24:15;;;;;;;26.17;15.13;;;8.80;99.90;;;;;;5164906;27;20076;-65
2022/03/27 00:26:41;;;;;;;23.40;15.27;;;8.70;99.90;;;;;;5147772;27;20054;-65
2022/03/27 00:29:08;;;;;;;25.90;15.15;;;8.60;99.90;;;;;;5147951;27;20041;-65
2022/03/27 00:31:38;;;;;;;24.02;15.02;;;8.40;99.90;;;;;;5166386;27;20131;-65
2022/03/27 00:34:05;;;;;;;26.63;15.77;;;8.40;99.90;;;;;;5166261;27;20039;-65
2022/03/27 00:36:31;;;;;;;27.38;15.32;;;8.40;99.90;;;;;;5165283;27;20086;-65
2022/03/27 00:38:57;;;;;;;26.77;16.40;;;8.30;99.90;;;;;;5145855;27;20039;-65
2022/03/27 00:41:25;;;;;;;27.30;15.27;;;8.10;99.90;;;;;;5168990;27;20079;-65
2022/03/27 00:43:51;;;;;;;25.88;14.98;;;8.10;99.90;;;;;;5165002;27;20066;-65
2022/03/27 00:46:17;;;;;;;23.35;14.23;;;8.30;99.90;;;;;;5165077;27;20106;-65
2022/03/27 00:48:43;;;;;;;28.10;15.02;;;8.30;99.90;;;;;;5146738;27;20043;-65
2022/03/27 00:51:09;;;;;;;29.30;16.88;;;8.30;99.90;;;;;;5165629;27;20034;-65
2022/03/27 00:53:34;;;;;;;31.38;16.80;;;8.10;99.90;;;;;;5146203;27;20053;-65
2022/03/27 00:56:00;;;;;;;32.55;16.80;;;7.90;99.90;;;;;;5146632;27;20109;-65
2022/03/27 00:58:26;;;;;;;30.33;17.48;;;7.80;99.90;;;;;;5165482;27;20070;-65
2022/03/27 01:01:11;;;;;;;27.75;16.60;;;7.70;99.90;;;;;;5149126;27;20068;-65
2022/03/27 01:03:37;;;;;;;26.70;15.77;;;7.80;99.90;;;;;;5163990;27;20084;-65
2022/03/27 01:06:03;;;;;;;28.08;16.65;;;7.90;99.90;;;;;;5165428;27;20102;-65
2022/03/27 01:11:21;;;;;;;29.90;17.67;;;7.80;99.90;;;;;;5165064;27;20081;-65
2022/03/27 01:13:52;;;;;;;29.42;16.58;;;7.60;99.90;;;;;;5165373;27;20043;-65
2022/03/27 01:16:36;;;;;;;26.85;15.52;;;7.50;99.90;;;;;;5167292;27;20058;-65
2022/03/27 01:19:03;;;;;;;23.52;13.80;;;7.50;99.90;;;;;;5147056;27;20066;-65
2022/03/27 01:21:29;;;;;;;23.63;12.98;;;7.60;99.90;;;;;;5165319;27;20091;-65
2022/03/27 01:23:55;;;;;;;18.38;12.20;;;7.50;99.90;;;;;;5146657;27;20680;-65
2022/03/27 01:26:23;;;;;;;18.45;11.30;;;7.50;99.90;;;;;;5164850;27;20050;-65
2022/03/27 01:28:49;;;;;;;19.23;12.20;;;7.40;99.90;;;;;;5165585;27;20130;-65
2022/03/27 01:31:15;;;;;;;17.30;10.98;;;7.40;99.90;;;;;;5147239;27;20042;-65
2022/03/27 01:33:41;;;;;;;18.80;10.82;;;7.30;99.90;;;;;;5164915;27;20045;-65
2022/03/27 01:36:06;;;;;;;16.33;8.98;;;7.30;99.90;;;;;;5164707;27;20042;-65
2022/03/27 01:38:32;;;;;;;11.80;8.35;;;7.40;99.90;;;;;;5164660;27;20046;-65
2022/03/27 01:40:58;;;;;;;14.00;8.25;;;7.50;99.90;;;;;;5146187;27;20042;-65
2022/03/27 01:43:23;;;;;;;12.18;8.27;;;7.50;99.90;;;;;;5165937;27;20051;-65
2022/03/27 01:45:49;;;;;;;15.20;8.45;;;7.70;99.90;;;;;;5164622;27;20074;-65
2022/03/27 01:48:15;;;;;;;13.35;8.32;;;7.60;99.90;;;;;;5164609;27;20050;-65
2022/03/27 01:50:41;;;;;;;13.35;7.88;;;7.70;99.90;;;;;;5164278;27;20038;-65
2022/03/27 01:53:06;;;;;;;17.33;8.85;;;7.70;99.90;;;;;;5146164;27;20039;-65
2022/03/27 01:55:32;;;;;;;13.13;8.80;;;7.60;99.90;;;;;;5169223;27;20046;-65
2022/03/27 01:57:58;;;;;;;12.00;8.23;;;7.50;99.90;;;;;;5150612;27;20070;-65
2022/03/27 02:00:24;;;;;;;13.40;7.90;;;7.60;99.90;;;;;;5153321;27;20265;-65
2022/03/27 02:02:49;;;;;;;12.15;8.05;;;7.60;99.90;;;;;;5167995;27;20121;-65
2022/03/27 02:05:15;;;;;;;16.73;9.07;;;7.60;99.90;;;;;;5149805;27;20047;-65
2022/03/27 02:07:45;;;;;;;16.20;9.07;;;7.50;99.90;;;;;;5169479;27;20039;-65
2022/03/27 02:10:11;;;;;;;14.73;7.65;;;7.20;99.90;;;;;;5168554;27;20068;-65
2022/03/27 02:12:37;;;;;;;15.10;8.65;;;6.80;99.90;;;;;;5143005;27;20035;-65
2022/03/27 02:15:07;;;;;;;15.20;9.18;;;6.50;99.90;;;;;;5167905;27;20108;-65
2022/03/27 02:17:36;;;;;;;;;;;6.20;99.90;;;;;;5168202;27;20046;-65
2022/03/27 02:20:02;;;;;;;18.37;10.07;;;6.00;99.90;;;;;;5149620;27;19976;-65
2022/03/27 02:22:28;;;;;;;15.70;9.30;;;6.00;99.90;;;;;;5168576;27;20317;-65
2022/03/27 02:24:54;;;;;;;17.05;9.80;;;5.90;99.90;;;;;;5167465;27;20050;-65
2022/03/27 02:27:20;;;;;;;14.15;8.63;;;5.80;99.90;;;;;;5167952;27;20043;-65
2022/03/27 02:29:45;;;;;;;20.13;10.30;;;5.70;99.90;;;;;;5167358;27;20042;-65
2022/03/27 02:32:11;;;;;;;19.35;10.85;;;5.80;99.90;;;;;;5168306;27;20039;-65
2022/03/27 02:34:37;;;;;;;17.83;9.45;;;5.80;99.90;;;;;;5168130;27;20039;-65
2022/03/27 02:37:03;;;;;;;18.48;9.60;;;5.90;99.90;;;;;;5167745;27;20039;-65
2022/03/27 02:39:29;;;;;;;19.95;11.15;;;5.80;99.90;;;;;;5148498;27;20102;-65
2022/03/27 02:41:54;;;;;;;20.42;10.63;;;5.80;99.90;;;;;;5162315;27;20038;-65
2022/03/27 02:44:22;;;;;;;22.08;10.88;;;5.60;99.90;;;;;;5168520;27;20038;-65
2022/03/27 02:46:48;;;;;;;14.80;9.25;;;5.70;99.90;;;;;;5150346;27;20046;-65
2022/03/27 02:49:13;;;;;;;15.93;9.85;;;5.60;99.90;;;;;;5149840;27;20081;-65
2022/03/27 02:51:41;;;;;;;15.02;9.27;;;5.50;99.90;;;;;;5167094;27;20031;-65
2022/03/27 02:54:08;;;;;;;15.63;9.07;;;5.40;99.90;;;;;;5148902;27;20117;-65
2022/03/27 02:56:34;;;;;;;13.82;9.10;;;5.50;99.90;;;;;;5167198;27;20050;-65
2022/03/27 02:58:59;;;;;;;14.40;9.52;;;5.20;99.90;;;;;;5147792;27;20037;-65
2022/03/27 03:01:25;;;;;;;16.00;11.00;;;5.30;99.90;;;;;;5167661;27;20047;-65
2022/03/27 03:03:51;;;;;;;16.80;10.90;;;5.20;99.90;;;;;;5167375;27;20043;-65
2022/03/27 03:06:18;;;;;;;15.43;9.73;;;5.20;99.90;;;;;;5167141;27;20068;-65
2022/03/27 03:08:44;;;;;;;18.95;10.20;;;5.10;99.90;;;;;;5147916;27;20047;-65
2022/03/27 03:11:13;;;;;;;12.77;9.50;;;5.00;99.90;;;;;;5167439;27;20054;-65
2022/03/27 03:13:39;;;;;;;15.95;10.15;;;4.90;99.90;;;;;;5142614;27;20054;-65
2022/03/27 03:16:06;;;;;;;20.23;10.52;;;4.90;99.90;;;;;;5167336;27;20068;-65
2022/03/27 03:18:34;;;;;;;18.13;10.63;;;5.00;99.90;;;;;;5167709;27;20043;-65
2022/03/27 03:21:00;;;;;;;19.15;9.98;;;5.10;99.90;;;;;;5148458;27;20049;-65
2022/03/27 03:23:26;;;;;;;18.45;10.40;;;5.10;99.90;;;;;;5152103;27;20046;-65
2022/03/27 03:25:51;;;;;;;19.42;10.48;;;5.00;99.90;;;;;;5148371;27;20172;-65
2022/03/27 03:28:17;;;;;;;17.58;9.43;;;5.10;99.90;;;;;;5148407;27;20051;-65
2022/03/27 03:30:43;;;;;;;16.13;9.00;;;5.20;99.90;;;;;;5165966;27;20034;-65
2022/03/27 03:33:08;;;;;;;17.23;8.48;;;5.20;99.90;;;;;;5147808;27;20053;-65
2022/03/27 03:35:34;;;;;;;19.52;9.65;;;5.40;99.90;;;;;;5166128;27;20039;-65
2022/03/27 03:38:00;;;;;;;19.95;8.68;;;5.60;99.90;;;;;;5166582;27;20250;-65
2022/03/27 03:40:26;;;;;;;16.60;8.88;;;5.50;99.90;;;;;;5166173;27;20659;-65
2022/03/27 03:42:52;;;;;;;18.83;9.23;;;5.60;99.90;;;;;;5166529;27;20049;-65
2022/03/27 03:45:18;;;;;;;19.70;9.05;;;5.60;99.90;;;;;;5148647;27;20050;-65
2022/03/27 03:47:44;;;;;;;20.63;9.68;;;5.70;99.90;;;;;;5166185;27;20072;-65
2022/03/27 03:50:10;;;;;;;20.30;8.60;;;5.70;99.90;;;;;;5147174;27;20046;-65
2022/03/27 03:52:36;;;;;;;13.93;8.05;;;5.50;99.90;;;;;;5147339;27;20125;-65
2022/03/27 03:55:02;;;;;;;15.25;7.60;;;5.40;99.90;;;;;;5165709;27;20035;-65
2022/03/27 03:57:28;;;;;;;20.35;7.85;;;5.30;99.90;;;;;;5165493;27;20050;-65
2022/03/27 03:59:55;;;;;;;20.33;8.57;;;5.50;99.90;;;;;;5165161;27;20065;-65
2022/03/27 04:02:20;;;;;;;15.20;7.43;;;5.50;99.90;;;;;;5168324;27;20042;-65
2022/03/27 04:04:46;;;;;;;19.20;7.97;;;5.60;99.90;;;;;;5147162;27;20045;-65
2022/03/27 04:07:12;;;;;;;15.32;8.13;;;5.80;99.90;;;;;;5147025;27;20054;-65
2022/03/27 04:09:38;;;;;;;19.35;8.43;;;5.90;99.90;;;;;;5146907;27;20266;-65
2022/03/27 04:12:05;;;;;;;23.95;8.90;;;6.10;99.90;;;;;;5166450;27;20186;-65
2022/03/27 04:14:34;;;;;;;19.15;7.45;;;6.30;99.90;;;;;;5146114;27;20034;-65
2022/03/27 04:17:00;;;;;;;20.17;7.25;;;6.40;99.90;;;;;;5165525;27;20043;-65
2022/03/27 04:19:26;;;;;;;18.20;7.65;;;6.40;99.90;;;;;;5146433;27;20038;-65
2022/03/27 04:21:52;;;;;;;24.27;8.15;;;6.40;99.90;;;;;;5131951;27;20051;-65
2022/03/27 04:24:17;;;;;;;22.00;8.38;;;6.40;99.90;;;;;;5151113;27;20046;-65
2022/03/27 04:26:43;;;;;;;26.10;8.48;;;6.70;99.90;;;;;;5145035;27;20071;-65
2022/03/27 04:29:10;;;;;;;21.50;7.45;;;6.80;99.90;;;;;;5144233;27;20048;-65
2022/03/27 04:31:37;;;;;;;18.17;7.10;;;6.80;99.90;;;;;;5127043;27;20086;-65
2022/03/27 04:34:03;;;;;;;22.00;6.88;;;6.90;99.90;;;;;;5124919;27;20039;-65
2022/03/27 04:36:28;;;;;;;26.95;7.45;;;6.90;99.90;;;;;;5145446;27;20050;-65
2022/03/27 04:38:55;;;;;;;24.08;7.22;;;7.00;99.90;;;;;;5127139;28;20049;-65
2022/03/27 04:41:20;;;;;;;24.45;7.75;;;7.00;99.90;;;;;;5127717;28;20060;-65
2022/03/27 04:43:48;;;;;;;23.83;7.05;;;7.10;99.90;;;;;;5144381;28;20428;-65
2022/03/27 04:46:18;;;;;;;25.17;8.05;;;7.30;99.90;;;;;;5126039;28;20156;-65
2022/03/27 04:48:45;;;;;;;26.45;7.10;;;7.20;99.90;;;;;;5121706;28;20050;-65
2022/03/27 04:51:11;;;;;;;26.45;6.13;;;7.20;99.90;;;;;;5144454;28;20401;-65
2022/03/27 04:53:37;;;;;;;21.45;6.63;;;7.30;99.90;;;;;;5145888;28;20078;-65
2022/03/27 04:56:04;;;;;;;23.58;6.43;;;7.30;99.90;;;;;;5127754;28;20055;-65
2022/03/27 04:58:29;;;;;;;19.20;6.85;;;7.20;99.90;;;;;;5121583;28;20398;-65
2022/03/27 05:00:55;;;;;;;29.23;8.68;;;7.30;99.90;;;;;;5116546;28;20058;-65
2022/03/27 05:03:21;;;;;;;27.00;7.18;;;7.20;99.90;;;;;;5126404;28;20050;-65
2022/03/27 05:05:47;;;;;;;30.58;6.82;;;7.30;99.90;;;;;;5145307;28;20039;-65
2022/03/27 05:08:12;;;;;;;33.20;7.63;;;7.40;99.90;;;;;;5144110;28;20050;-65
2022/03/27 05:10:39;;;;;;;32.03;7.07;;;7.40;99.90;;;;;;5126868;28;20116;-65
2022/03/27 05:13:05;;;;;;;29.73;7.88;;;7.50;99.90;;;;;;5143821;28;20058;-65
2022/03/27 05:15:30;;;;;;;29.02;6.97;;;7.40;99.90;;;;;;5144355;28;20043;-65
2022/03/27 05:17:58;;;;;;;26.42;7.25;;;7.60;99.90;;;;;;5121659;27;20043;-65
2022/03/27 05:20:29;;;;;;;31.27;7.55;;;7.50;99.90;;;;;;5147097;27;20049;-65
2022/03/27 05:22:55;;;;;;;37.35;8.02;;;7.60;99.90;;;;;;5165377;27;20053;-65
2022/03/27 05:25:21;;;;;;;39.15;8.50;;;7.50;99.90;;;;;;5165942;27;20390;-65
2022/03/27 05:27:50;;;;;;;33.85;7.90;;;7.40;99.90;;;;;;5168697;27;20035;-65
2022/03/27 05:30:18;;;;;;;33.63;7.25;;;7.50;99.90;;;;;;5150109;27;20088;-65
2022/03/27 05:32:45;;;;;;;42.22;7.55;;;7.60;99.90;;;;;;5168565;27;20054;-65
2022/03/27 05:35:11;;;;;;;35.95;6.43;;;7.40;99.90;;;;;;5169590;27;20042;-65
2022/03/27 05:37:38;;;;;;;38.53;7.05;;;7.40;99.90;;;;;;5150194;27;20043;-64
2022/03/27 05:40:05;;;;;;;32.38;7.05;;;7.50;99.90;;;;;;5167421;27;20054;-65
2022/03/27 05:42:31;;;;;;;29.98;6.55;;;7.50;99.90;;;;;;5149879;27;20049;-65
2022/03/27 05:44:57;;;;;;;36.70;6.68;;;7.50;99.90;;;;;;5169040;27;20439;-65
2022/03/27 05:47:23;;;;;;;33.30;6.85;;;7.60;99.90;;;;;;5168712;27;20102;-65
2022/03/27 05:49:48;;;;;;;37.08;6.45;;;7.60;99.90;;;;;;5168422;27;20043;-65
2022/03/27 05:52:16;;;;;;;41.75;7.45;;;7.60;99.90;;;;;;5167595;27;20815;-65
2022/03/27 05:54:42;;;;;;;31.92;6.45;;;7.50;99.90;;;;;;5168063;27;20031;-65
2022/03/27 05:57:08;;;;;;;30.92;6.43;;;7.60;99.90;;;;;;5150626;27;20054;-65
2022/03/27 05:59:34;;;;;;;32.72;6.40;;;7.60;99.90;;;;;;5168660;27;20045;-65
2022/03/27 06:02:00;;;;;;;37.83;7.97;;;7.70;99.90;;;;;;5150370;27;20046;-65
2022/03/27 06:04:26;;;;;;;39.47;7.13;;;7.70;99.90;;;;;;5149202;27;20047;-65
2022/03/27 06:06:52;;;;;;;37.28;8.73;;;7.70;99.90;;;;;;5169630;27;20059;-65
2022/03/27 06:09:18;;;;;;;34.00;7.32;;;7.80;99.90;;;;;;5150687;27;20046;-65
2022/03/27 06:11:43;;;;;;;41.00;6.93;;;7.80;99.90;;;;;;5150385;27;20687;-65
2022/03/27 06:14:09;;;;;;;34.85;7.28;;;7.90;99.90;;;;;;5149937;27;20111;-65
2022/03/27 06:16:36;;;;;;;37.08;6.70;;;7.80;99.90;;;;;;5167956;27;20035;-65
2022/03/27 06:19:02;;;;;;;40.80;7.53;;;7.90;99.90;;;;;;5169219;27;20042;-65
2022/03/27 06:21:27;;;;;;;26.40;7.05;;;7.80;99.90;;;;;;5147641;27;20051;-65
2022/03/27 06:23:53;;;;;;;34.83;7.88;;;7.90;99.90;;;;;;5130862;27;20043;-65
2022/03/27 06:26:19;;;;;;;32.88;7.55;;;8.00;99.90;;;;;;5168055;27;20078;-65
2022/03/27 06:28:44;;;;;;;30.23;8.18;;;7.90;99.90;;;;;;5167891;27;20046;-65
2022/03/27 06:31:10;;;;;;;39.20;8.05;;;7.90;99.90;;;;;;5149328;27;20050;-65
2022/03/27 06:33:36;;;;;;;34.28;8.82;;;7.90;99.90;;;;;;5167420;27;20087;-65
2022/03/27 06:36:01;;;;;;;40.83;8.10;;;7.90;99.90;;;;;;5149901;27;20053;-65
2022/03/27 06:38:28;;;;;;;34.22;9.65;;;8.00;99.90;;;;;;5168248;27;20042;-65
2022/03/27 06:40:55;;;;;;;37.95;9.95;;;7.90;99.90;;;;;;5149729;27;20042;-65
2022/03/27 06:43:22;;;;;;;28.27;9.40;;;7.90;99.90;;;;;;5167759;27;20077;-65
2022/03/27 06:45:49;;;;;;;27.15;8.50;;;7.90;99.90;;;;;;5168372;27;20046;-65
2022/03/27 06:48:15;;;;;;;27.65;9.50;;;7.90;99.90;;;;;;5168522;27;20047;-65
2022/03/27 06:50:41;;;;;;;33.45;9.60;;;7.90;99.90;;;;;;5168205;27;20061;-65
2022/03/27 06:53:07;;;;;;;36.15;10.90;;;8.00;99.90;;;;;;5149362;27;20074;-65
2022/03/27 06:55:33;;;;;;;25.45;9.23;;;8.00;99.90;;;;;;5132001;27;20540;-65
2022/03/27 06:57:59;;;;;;;34.10;10.70;;;7.90;99.90;;;;;;5149122;27;20042;-65
2022/03/27 07:03:26;;;;;;;29.88;8.70;;;8.20;99.90;;;;;;5078850;28;20045;-65
2022/03/27 07:05:52;;;;;;;31.13;8.75;;;8.10;99.90;;;;;;5066557;28;20091;-65
2022/03/27 07:08:22;;;;;;;28.20;9.95;;;8.30;99.90;;;;;;5084526;28;20048;-65
2022/03/27 07:10:48;;;;;;;;;;;8.40;99.90;;;;;;5086405;28;20114;-65
2022/03/27 07:13:16;;;;;;;37.25;8.75;;;8.40;99.90;;;;;;5070301;28;19920;-65
2022/03/27 07:15:43;;;;;;;41.75;9.20;;;8.50;99.90;;;;;;5085229;28;20048;-65
2022/03/27 07:18:11;;;;;;;29.98;8.95;;;8.50;99.90;;;;;;5088601;28;20052;-65
2022/03/27 07:20:43;;;;;;;38.75;8.82;;;8.70;99.90;;;;;;5051364;28;20048;-65
2022/03/27 07:23:11;;;;;;;33.80;8.82;;;8.60;99.90;;;;;;5066009;28;20055;-65
2022/03/27 07:25:39;;;;;;;36.70;10.52;;;8.80;99.90;;;;;;5084534;28;20051;-65
2022/03/27 07:28:06;;;;;;;27.73;8.88;;;8.70;99.90;;;;;;5066061;28;20053;-65
2022/03/27 07:30:33;;;;;;;34.65;8.23;;;8.70;99.90;;;;;;5082962;28;20045;-65
2022/03/27 07:32:59;;;;;;;30.88;8.10;;;8.60;99.90;;;;;;5067328;28;20048;-65
2022/03/27 07:35:30;;;;;;;40.78;8.25;;;8.70;99.90;;;;;;5086810;28;20045;-65
2022/03/27 07:37:56;;;;;;;47.85;9.93;;;8.80;99.90;;;;;;5107866;27;20136;-65
2022/03/27 07:40:22;;;;;;;45.42;12.25;;;8.90;99.90;;;;;;5127341;27;20047;-65
2022/03/27 07:42:50;;;;;;;39.60;9.85;;;8.90;99.90;;;;;;5145581;27;20051;-65
2022/03/27 07:45:21;;;;;;;45.05;11.48;;;8.90;99.90;;;;;;5147522;27;20510;-65
2022/03/27 07:47:48;;;;;;;36.25;9.27;;;8.90;99.90;;;;;;5124781;27;20054;-66
2022/03/27 07:50:14;;;;;;;37.95;9.80;;;8.90;99.90;;;;;;5142657;27;20032;-65
2022/03/27 07:52:40;;;;;;;36.15;11.63;;;9.00;99.90;;;;;;5145982;27;20042;-65
2022/03/27 07:55:08;;;;;;;45.63;12.35;;;9.00;99.90;;;;;;5142660;27;20043;-64
2022/03/27 07:57:33;;;;;;;36.95;11.30;;;9.10;99.90;;;;;;5145241;27;20050;-65
2022/03/27 07:59:59;;;;;;;38.97;11.85;;;9.20;99.90;;;;;;5131333;27;20035;-64
2022/03/27 08:02:25;;;;;;;45.13;10.30;;;9.20;99.90;;;;;;5159550;27;20053;-64
2022/03/27 08:04:51;;;;;;;44.25;10.93;;;9.20;99.90;;;;;;5158329;27;20125;-64
2022/03/27 08:07:17;;;;;;;46.28;13.77;;;9.20;99.90;;;;;;5143367;27;20110;-65
2022/03/27 08:09:42;;;;;;;34.35;11.40;;;9.20;99.90;;;;;;5156899;27;20513;-64
2022/03/27 08:12:09;;;;;;;47.53;11.77;;;9.20;99.90;;;;;;5155605;27;20073;-64
2022/03/27 08:14:36;;;;;;;33.50;10.18;;;9.20;99.90;;;;;;5160834;27;20046;-64
2022/03/27 08:17:04;;;;;;;38.65;10.68;;;9.20;99.90;;;;;;5158802;27;20051;-64
2022/03/27 08:19:31;;;;;;;41.50;10.75;;;9.20;99.90;;;;;;5148406;27;20047;-64
2022/03/27 08:21:57;;;;;;;46.28;13.52;;;9.30;99.90;;;;;;5161106;27;20051;-64
2022/03/27 08:24:23;;;;;;;41.47;12.95;;;9.30;99.90;;;;;;5146383;27;20054;-64
2022/03/27 08:27:02;;;;;;;50.20;17.98;;;9.30;99.90;;;;;;5164103;27;20039;-64
2022/03/27 08:29:33;;;;;;;50.88;17.77;;;9.40;99.90;;;;;;5166132;27;20041;-64
2022/03/27 08:32:01;;;;;;;56.50;19.33;;;9.50;99.90;;;;;;5166491;27;20046;-64
2022/03/27 08:34:30;;;;;;;45.95;17.15;;;9.50;99.90;;;;;;5165254;27;20068;-64
2022/03/27 08:36:57;;;;;;;48.45;16.10;;;9.60;99.90;;;;;;5146513;27;20056;-65
2022/03/27 08:39:24;;;;;;;47.67;19.27;;;9.70;99.90;;;;;;5143023;27;20477;-65
2022/03/27 08:41:51;;;;;;;48.85;18.27;;;9.80;99.90;;;;;;5164091;27;20042;-68
2022/03/27 08:44:19;;;;;;;38.80;17.15;;;9.80;99.90;;;;;;5164656;27;20047;-67
2022/03/27 08:46:46;;;;;;;49.17;17.83;;;9.90;99.90;;;;;;5147109;27;20035;-68
2022/03/27 08:49:30;;;;;;;46.50;18.85;;;10.10;99.90;;;;;;5165085;27;20047;-69
2022/03/27 08:52:17;;;;;;;47.63;15.95;;;10.10;99.90;;;;;;5146442;27;20046;-69
2022/03/27 08:55:06;;;;;;;35.05;15.30;;;10.30;99.90;;;;;;5144193;27;20055;-70
2022/03/27 08:57:55;;;;;;;42.83;16.10;;;10.40;99.90;;;;;;5159414;27;20045;-69
2022/03/27 09:00:26;;;;;;;45.60;15.95;;;10.40;99.90;;;;;;5165636;27;20049;-68
2022/03/27 09:02:52;;;;;;;41.35;13.38;;;10.40;99.90;;;;;;5108973;27;20047;-72
2022/03/27 09:05:20;;;;;;;40.75;16.20;;;10.40;99.90;;;;;;5132413;27;20062;-72
2022/03/27 09:07:47;;;;;;;44.20;15.95;;;10.40;99.90;;;;;;5119396;27;20051;-72
2022/03/27 09:10:14;;;;;;;44.42;15.40;;;10.50;99.90;;;;;;5134620;27;20078;-72
2022/03/27 09:12:40;;;;;;;35.15;14.60;;;10.50;99.90;;;;;;5127794;27;20059;-72
2022/03/27 09:15:08;;;;;;;46.53;15.27;;;10.60;99.90;;;;;;5127172;27;20054;-72
2022/03/27 09:18:01;;;;;;;41.03;14.73;;;10.70;99.90;;;;;;5148597;27;20558;-72
2022/03/27 09:20:32;;;;;;;43.28;15.20;;;10.70;99.90;;;;;;5129089;27;20051;-73
2022/03/27 09:23:13;;;;;;;39.85;13.40;;;10.80;99.90;;;;;;5144144;27;20065;-72
2022/03/27 09:25:45;;;;;;;36.22;14.35;;;10.90;99.90;;;;;;5128418;27;20058;-72
2022/03/27 09:28:11;;;;;;;36.92;15.65;;;11.00;99.90;;;;;;5143703;27;20038;-71
2022/03/27 09:30:37;;;;;;;39.75;15.05;;;11.00;99.90;;;;;;5133823;27;20055;-77
2022/03/27 09:33:03;;;;;;;35.65;12.20;;;11.00;99.90;;;;;;5144666;27;20042;-75
2022/03/27 09:35:29;;;;;;;47.75;13.02;;;11.10;99.90;;;;;;5133594;27;20046;-78
2022/03/27 09:37:55;;;;;;;40.55;13.38;;;11.30;99.90;;;;;;5123595;27;20073;-74
2022/03/27 09:40:20;;;;;;;34.47;10.95;;;11.40;99.90;;;;;;5165213;27;20039;-74
2022/03/27 09:42:47;;;;;;;43.28;11.48;;;11.50;99.90;;;;;;5134966;27;20051;-74
2022/03/27 09:45:14;;;;;;;35.25;12.07;;;11.40;99.90;;;;;;5143884;27;20054;-75
2022/03/27 09:47:42;;;;;;;37.05;11.57;;;11.40;99.90;;;;;;5158637;27;20050;-73
2022/03/27 09:50:08;;;;;;;32.90;9.85;;;11.60;99.90;;;;;;5141191;27;20042;-75
2022/03/27 09:52:34;;;;;;;36.90;11.10;;;11.60;99.90;;;;;;5128690;27;20257;-75
2022/03/27 09:55:03;;;;;;;40.17;11.35;;;11.60;99.90;;;;;;5160993;27;20046;-75
2022/03/27 09:57:34;;;;;;;37.90;11.95;;;11.50;99.90;;;;;;5130953;27;20133;-74
2022/03/27 10:00:12;;;;;;;37.60;11.07;;;11.70;99.90;;;;;;5117095;27;20038;-75
2022/03/27 10:02:38;;;;;;;41.40;12.10;;;11.70;99.90;;;;;;5112784;27;20062;-76
2022/03/27 10:05:15;;;;;;;32.85;9.85;;;11.60;99.90;;;;;;5142936;27;20031;-72
2022/03/27 10:07:47;;;;;;;27.50;8.32;;;11.70;99.90;;;;;;5133824;27;20046;-72
2022/03/27 10:10:24;;;;;;;28.35;8.93;;;11.70;99.90;;;;;;5121682;27;20433;-69
2022/03/27 10:12:52;;;;;;;30.23;8.45;;;11.70;99.90;;;;;;5130260;27;20057;-69
2022/03/27 10:15:20;;;;;;;26.13;8.25;;;11.90;99.90;;;;;;5140188;27;20038;-69
2022/03/27 10:17:50;;;;;;;34.13;8.82;;;11.90;99.90;;;;;;5130214;27;20053;-69
2022/03/27 10:20:18;;;;;;;32.15;8.63;;;11.90;99.90;;;;;;5135689;27;20126;-70
2022/03/27 10:22:52;;;;;;;29.15;8.15;;;11.90;99.90;;;;;;5125888;27;20514;-69
2022/03/27 10:25:18;;;;;;;33.75;9.75;;;12.10;99.90;;;;;;5118236;27;20064;-69
2022/03/27 10:27:48;;;;;;;30.63;7.95;;;12.00;99.90;;;;;;5126191;27;20058;-69
2022/03/27 10:30:16;;;;;;;28.55;8.02;;;12.00;99.90;;;;;;5118844;27;20043;-69
2022/03/27 10:32:43;;;;;;;29.13;7.10;;;12.10;99.90;;;;;;5125237;27;20047;-69
2022/03/27 10:35:23;;;;;;;30.70;7.53;;;12.20;99.90;;;;;;5139701;27;20122;-69
2022/03/27 10:37:53;;;;;;;30.88;8.93;;;12.10;99.90;;;;;;5119739;27;20066;-69
2022/03/27 10:40:22;;;;;;;22.92;6.65;;;12.10;99.90;;;;;;5116051;27;20256;-69
2022/03/27 10:43:03;;;;;;;24.00;7.50;;;12.20;99.90;;;;;;5123587;27;20047;-69
2022/03/27 10:45:30;;;;;;;24.17;6.88;;;12.40;99.90;;;;;;5116172;27;20517;-69
2022/03/27 10:48:12;;;;;;;29.90;6.93;;;12.50;99.90;;;;;;5108582;27;20608;-70
2022/03/27 10:50:46;;;;;;;26.17;7.78;;;12.60;99.90;;;;;;5120391;27;20057;-70
2022/03/27 10:53:12;;;;;;;30.75;8.63;;;12.70;99.90;;;;;;5104403;27;20051;-69
2022/03/27 10:55:46;;;;;;;30.00;7.78;;;12.80;99.90;;;;;;5137945;27;20116;-69
2022/03/27 10:58:30;;;;;;;29.38;7.53;;;12.90;99.90;;;;;;5091109;27;20497;-69
2022/03/27 11:01:00;;;;;;;26.17;7.32;;;13.00;99.90;;;;;;5108485;27;20053;-69
2022/03/27 11:03:51;;;;;;;27.52;7.65;;;13.10;99.90;;;;;;5106169;27;20055;-69
2022/03/27 11:06:23;;;;;;;28.52;8.70;;;13.20;99.90;;;;;;5098646;27;20058;-69
2022/03/27 11:08:50;;;;;;;22.08;5.90;;;13.30;99.90;;;;;;5118249;27;20050;-69
2022/03/27 11:11:38;;;;;;;22.65;5.93;;;13.30;99.90;;;;;;5108948;27;20046;-69
2022/03/27 11:14:05;;;;;;;25.77;5.68;;;13.50;99.90;;;;;;5118615;27;20219;-69
2022/03/27 11:16:33;;;;;;;21.45;5.22;;;13.50;99.90;;;;;;5127633;27;20101;-69
2022/03/27 11:18:59;;;;;;;23.83;6.00;;;13.40;99.90;;;;;;5138833;27;20131;-69
2022/03/27 11:21:27;;;;;;;18.77;4.85;;;13.50;99.90;;;;;;5127186;27;20122;-69
2022/03/27 11:24:19;;;;;;;15.38;4.65;;;13.50;99.90;;;;;;5138370;27;20089;-69
2022/03/27 11:26:45;;;;;;;23.30;6.00;;;13.40;99.90;;;;;;5133123;27;20055;-69
2022/03/27 11:29:11;;;;;;;25.98;6.53;;;13.60;99.90;;;;;;5124016;27;20402;-69
2022/03/27 11:31:38;;;;;;;18.88;4.95;;;13.50;99.90;;;;;;5153339;27;20050;-69
2022/03/27 11:34:14;;;;;;;19.73;5.60;;;13.70;99.90;;;;;;5126756;27;20580;-69
2022/03/27 11:36:44;;;;;;;22.63;5.70;;;13.70;99.90;;;;;;5147835;27;20419;-69
2022/03/27 11:39:11;;;;;;;18.27;6.07;;;13.70;99.90;;;;;;5133812;27;20050;-69
2022/03/27 11:41:42;;;;;;;21.48;6.25;;;13.80;99.90;;;;;;5130021;27;20050;-69
2022/03/27 11:44:17;;;;;;;20.15;5.38;;;13.80;99.90;;;;;;5134604;27;20046;-69
2022/03/27 11:46:54;;;;;;;24.30;6.00;;;14.10;99.90;;;;;;5133980;27;20116;-70
2022/03/27 11:49:22;;;;;;;19.17;4.80;;;14.10;99.90;;;;;;5140133;27;20054;-69
2022/03/27 11:52:06;;;;;;;25.20;7.30;;;14.20;99.90;;;;;;5126792;27;20069;-69
2022/03/27 11:54:33;;;;;;;21.45;6.25;;;14.30;99.90;;;;;;5138870;27;20057;-69
2022/03/27 11:57:01;;;;;;;17.83;4.70;;;14.40;99.90;;;;;;5147359;27;20051;-69
2022/03/27 11:59:28;;;;;;;18.52;5.60;;;14.40;99.90;;;;;;5126707;27;20609;-69
2022/03/27 12:01:59;;;;;;;17.77;4.43;;;14.40;99.90;;;;;;5130044;27;20050;-70
2022/03/27 12:04:26;;;;;;;21.15;5.57;;;14.60;99.90;;;;;;5123479;27;20066;-69
2022/03/27 12:06:59;;;;;;;22.90;4.93;;;14.70;99.90;;;;;;5132058;27;20091;-69
2022/03/27 12:09:30;;;;;;;23.30;5.80;;;14.80;99.90;;;;;;5139822;27;20046;-69
2022/03/27 12:12:14;;;;;;;21.02;5.63;;;15.00;99.90;;;;;;5129652;27;20290;-69
2022/03/27 12:15:05;;;;;;;23.38;4.90;;;15.10;99.90;;;;;;5133530;27;20070;-69
2022/03/27 12:17:32;;;;;;;17.00;4.30;;;15.20;99.90;;;;;;5126594;27;20076;-70
2022/03/27 12:20:05;;;;;;;18.10;5.68;;;15.20;99.90;;;;;;5156828;27;20081;-69
2022/03/27 12:22:37;;;;;;;18.50;5.15;;;15.20;99.90;;;;;;5127941;27;20046;-70
2022/03/27 12:25:07;;;;;;;19.75;4.95;;;15.20;99.90;;;;;;5156990;27;20049;-69
2022/03/27 12:30:17;;;;;;;21.17;5.38;;;15.30;99.90;;;;;;5137049;27;19919;-70
2022/03/27 12:32:45;;;;;;;15.77;4.60;;;15.50;99.90;;;;;;5145827;27;20163;-70
2022/03/27 12:35:19;;;;;;;17.90;5.07;;;15.70;96.70;;;;;;5134093;27;20137;-70
2022/03/27 12:37:45;;;;;;;20.58;5.43;;;15.70;96.70;;;;;;5144748;27;20149;-69
2022/03/27 12:40:11;;;;;;;15.90;4.85;;;15.70;96.40;;;;;;5137743;27;20066;-70
2022/03/27 12:42:40;;;;;;;17.63;5.18;;;15.80;97.90;;;;;;5122971;27;20073;-70
2022/03/27 12:45:09;;;;;;;17.42;5.07;;;15.90;98.70;;;;;;5129749;27;20280;-70
2022/03/27 12:47:47;;;;;;;19.05;5.47;;;16.10;94.60;;;;;;5127968;27;20157;-70
2022/03/27 12:50:25;;;;;;;19.48;4.28;;;16.20;95.10;;;;;;5136909;27;20419;-70
2022/03/27 12:52:56;;;;;;;23.63;4.60;;;16.50;94.50;;;;;;5150804;27;20050;-70
2022/03/27 12:55:25;;;;;;;17.65;4.65;;;16.80;88.60;;;;;;5137804;27;20132;-69